createdAt,value
2022-10-07T00:00:42.461Z,55.52
2022-10-07T00:02:44.761Z,55.28
2022-10-07T00:04:47.128Z,55.42
2022-10-07T00:06:49.368Z,55.63
2022-10-07T00:08:53.421Z,55.80
2022-10-07T00:10:58.171Z,55.47
2022-10-07T00:13:01.542Z,56.00
2022-10-07T00:15:05.884Z,56.09
2022-10-07T00:17:07.836Z,55.84
2022-10-07T00:19:13.199Z,56.18
2022-10-07T00:21:16.994Z,55.79
2022-10-07T00:23:18.985Z,56.23
2022-10-07T00:25:21.755Z,56.33
2022-10-07T00:27:24.368Z,56.20
2022-10-07T00:29:28.413Z,56.02
2022-10-07T00:31:36.316Z,56.83
2022-10-07T00:33:39.739Z,56.68
2022-10-07T00:35:42.862Z,56.29
2022-10-07T00:37:45.431Z,56.11
2022-10-07T00:39:47.732Z,55.99
2022-10-07T00:41:52.468Z,55.99
2022-10-07T00:43:55.525Z,55.79
2022-10-07T00:46:37.845Z,56.77
2022-10-07T00:48:40.395Z,56.08
2022-10-07T00:50:43.177Z,56.49
2022-10-07T00:52:51.347Z,56.67
2022-10-07T00:54:56.680Z,56.43
2022-10-07T00:56:59.336Z,56.00
2022-10-07T00:59:02.482Z,56.28
2022-10-07T01:01:05.106Z,56.35
2022-10-07T01:03:07.191Z,56.14
2022-10-07T01:05:11.311Z,56.62
2022-10-07T01:07:13.402Z,56.46
2022-10-07T01:09:17.852Z,56.16
2022-10-07T01:11:34.306Z,57.05
2022-10-07T01:13:48.627Z,57.20
2022-10-07T01:16:18.180Z,57.55
2022-10-07T01:18:34.902Z,57.71
2022-10-07T01:20:55.197Z,56.81
2022-10-07T01:23:12.268Z,56.68
2022-10-07T01:25:55.307Z,57.59
2022-10-07T01:28:53.133Z,57.35
2022-10-07T01:31:01.195Z,57.64
2022-10-07T01:33:07.906Z,57.86
2022-10-07T01:35:20.875Z,57.62
2022-10-07T01:37:25.513Z,57.73
2022-10-07T01:39:34.042Z,57.91
2022-10-07T01:41:39.205Z,57.74
2022-10-07T01:43:42.500Z,57.33
2022-10-07T01:45:45.098Z,59.09
2022-10-07T01:47:51.128Z,58.27
2022-10-07T01:49:54.494Z,57.79
2022-10-07T01:52:24.753Z,58.72
2022-10-07T01:54:51.892Z,58.12
2022-10-07T01:57:05.768Z,58.79
2022-10-07T01:59:53.293Z,58.26
2022-10-07T02:02:21.888Z,57.39
2022-10-07T02:05:03.522Z,57.86
2022-10-07T02:07:36.250Z,59.26
2022-10-07T02:09:51.505Z,59.37
2022-10-07T02:12:05.550Z,58.83
2022-10-07T02:14:33.093Z,58.89
2022-10-07T02:16:47.297Z,59.15
2022-10-07T02:18:52.702Z,58.03
2022-10-07T02:20:56.180Z,58.03
2022-10-07T02:23:02.491Z,58.97
2022-10-07T02:25:06.240Z,58.71
2022-10-07T02:27:16.196Z,59.92
2022-10-07T02:29:25.871Z,58.96
2022-10-07T02:31:33.049Z,59.27
2022-10-07T02:33:38.156Z,59.57
2022-10-07T02:35:42.769Z,59.39
2022-10-07T02:37:49.804Z,59.74
2022-10-07T02:39:53.486Z,59.80
2022-10-07T02:42:14.409Z,59.84
2022-10-07T02:44:52.223Z,59.90
2022-10-07T02:47:05.982Z,60.14
2022-10-07T02:49:11.694Z,59.34
2022-10-07T02:51:21.198Z,59.39
2022-10-07T02:53:28.553Z,59.67
2022-10-07T02:55:31.770Z,59.00
2022-10-07T02:57:41.743Z,60.08
2022-10-07T02:59:47.394Z,59.37
2022-10-07T03:01:55.921Z,59.89
2022-10-07T03:03:58.785Z,59.92
2022-10-07T03:06:04.300Z,60.24
2022-10-07T03:08:09.683Z,59.58
2022-10-07T03:10:13.084Z,59.65
2022-10-07T03:12:15.662Z,59.53
2022-10-07T03:14:17.850Z,59.81
2022-10-07T03:16:20.176Z,59.57
2022-10-07T03:18:28.726Z,59.53
2022-10-07T03:20:40.299Z,59.74
2022-10-07T03:22:46.153Z,59.95
2022-10-07T03:24:51.709Z,59.58
2022-10-07T03:26:54.007Z,59.81
2022-10-07T03:28:57.409Z,60.10
2022-10-07T03:31:05.585Z,60.58
2022-10-07T03:33:08.713Z,61.15
2022-10-07T03:35:11.110Z,60.87
2022-10-07T03:37:14.195Z,61.01
2022-10-07T03:39:16.684Z,60.21
2022-10-07T03:41:19.749Z,61.12
2022-10-07T03:43:26.525Z,60.48
2022-10-07T03:45:32.394Z,60.38
2022-10-07T03:47:35.991Z,60.54
2022-10-07T03:49:39.044Z,60.48
2022-10-07T03:51:41.547Z,59.88
2022-10-07T03:53:44.437Z,60.27
2022-10-07T03:55:48.401Z,59.96
2022-10-07T03:57:51.824Z,60.19
2022-10-07T03:59:56.477Z,59.73
2022-10-07T04:01:58.695Z,59.93
2022-10-07T04:04:01.073Z,60.03
2022-10-07T04:06:06.930Z,59.89
2022-10-07T04:08:12.734Z,59.66
2022-10-07T04:10:17.150Z,59.96
2022-10-07T04:12:19.246Z,59.59
2022-10-07T04:14:21.468Z,59.68
2022-10-07T04:16:24.311Z,60.31
2022-10-07T04:18:26.881Z,59.74
2022-10-07T04:20:29.370Z,59.30
2022-10-07T04:22:31.792Z,59.60
2022-10-07T04:24:33.768Z,59.74
2022-10-07T04:26:36.245Z,59.66
2022-10-07T04:28:39.177Z,59.96
2022-10-07T04:30:51.244Z,60.64
2022-10-07T04:32:57.609Z,61.58
2022-10-07T04:34:59.845Z,61.39
2022-10-07T04:37:01.998Z,61.62
2022-10-07T04:39:05.701Z,61.59
2022-10-07T04:41:11.300Z,61.47
2022-10-07T04:43:20.511Z,61.46
2022-10-07T04:45:32.727Z,61.14
2022-10-07T04:47:36.087Z,60.77
2022-10-07T04:49:38.988Z,60.90
2022-10-07T04:51:43.696Z,60.89
2022-10-07T04:53:56.787Z,61.32
2022-10-07T04:56:06.163Z,62.96
2022-10-07T04:58:09.036Z,62.25
2022-10-07T05:00:11.677Z,62.75
2022-10-07T05:02:13.799Z,62.60
2022-10-07T05:04:16.200Z,62.98
2022-10-07T05:06:18.562Z,62.86
2022-10-07T05:08:24.585Z,63.19
2022-10-07T05:10:28.065Z,63.03
2022-10-07T05:12:30.113Z,62.65
2022-10-07T05:14:36.582Z,62.39
2022-10-07T05:16:39.983Z,62.42
2022-10-07T05:18:43.199Z,62.70
2022-10-07T05:20:49.025Z,62.57
2022-10-07T05:22:51.687Z,62.20
2022-10-07T05:24:54.684Z,62.16
2022-10-07T05:26:57.025Z,62.55
2022-10-07T05:28:59.123Z,62.11
2022-10-07T05:31:15.392Z,62.88
2022-10-07T05:33:21.552Z,63.00
2022-10-07T05:35:25.178Z,62.73
2022-10-07T05:37:27.895Z,62.80
2022-10-07T05:39:32.815Z,62.54
2022-10-07T05:41:45.730Z,62.41
2022-10-07T05:43:51.171Z,62.96
2022-10-07T05:46:04.517Z,62.94
2022-10-07T05:48:08.727Z,62.42
2022-10-07T05:50:10.535Z,62.48
2022-10-07T05:52:13.397Z,62.14
2022-10-07T05:54:18.546Z,62.44
2022-10-07T05:56:21.958Z,61.90
2022-10-07T05:58:25.326Z,62.75
2022-10-07T06:00:28.514Z,62.28
2022-10-07T06:02:30.891Z,62.16
2022-10-07T06:04:33.374Z,62.36
2022-10-07T06:06:36.756Z,62.60
2022-10-07T06:08:43.184Z,63.19
2022-10-07T06:11:04.599Z,62.79
2022-10-07T06:13:09.414Z,63.13
2022-10-07T06:15:14.834Z,62.83
2022-10-07T06:17:20.311Z,62.59
2022-10-07T06:19:23.833Z,62.33
2022-10-07T06:21:29.872Z,62.57
2022-10-07T06:23:36.298Z,62.46
2022-10-07T06:25:39.253Z,62.21
2022-10-07T06:27:41.273Z,62.14
2022-10-07T06:29:43.311Z,61.89
2022-10-07T06:31:48.674Z,62.24
2022-10-07T06:33:51.561Z,62.10
2022-10-07T06:35:59.844Z,62.15
2022-10-07T06:38:06.637Z,61.82
2022-10-07T06:40:12.741Z,62.16
2022-10-07T06:42:15.091Z,61.19
2022-10-07T06:44:32.833Z,61.54
2022-10-07T06:46:36.365Z,61.88
2022-10-07T06:48:41.731Z,61.54
2022-10-07T06:50:51.406Z,61.32
2022-10-07T06:52:53.804Z,61.11
2022-10-07T06:54:56.503Z,61.03
2022-10-07T06:56:58.573Z,60.99
2022-10-07T06:59:02.186Z,61.00
2022-10-07T07:01:15.213Z,60.83
2022-10-07T07:03:17.908Z,60.70
2022-10-07T07:05:20.789Z,60.56
2022-10-07T07:07:24.517Z,60.49
2022-10-07T07:09:27.056Z,60.53
2022-10-07T07:11:43.638Z,60.39
2022-10-07T07:13:50.959Z,61.08
2022-10-07T07:16:00.326Z,61.16
2022-10-07T07:18:08.939Z,60.54
2022-10-07T07:20:11.998Z,60.80
2022-10-07T07:22:14.218Z,60.58
2022-10-07T07:24:18.230Z,60.41
2022-10-07T07:26:22.482Z,60.40
2022-10-07T07:28:24.827Z,60.17
2022-10-07T07:30:28.115Z,60.29
2022-10-07T07:32:31.696Z,59.97
2022-10-07T07:34:38.294Z,59.44
2022-10-07T07:36:46.587Z,59.84
2022-10-07T07:38:54.778Z,59.69
2022-10-07T07:40:57.364Z,59.63
2022-10-07T07:42:59.854Z,59.99
2022-10-07T07:45:04.960Z,59.72
2022-10-07T07:47:09.057Z,59.55
2022-10-07T07:49:13.442Z,59.53
2022-10-07T07:51:19.161Z,59.48
2022-10-07T07:53:23.130Z,59.38
2022-10-07T07:55:25.985Z,59.42
2022-10-07T07:57:29.995Z,59.25
2022-10-07T07:59:37.597Z,59.27
2022-10-07T08:01:41.051Z,58.91
2022-10-07T08:03:46.489Z,58.40
2022-10-07T08:05:49.589Z,58.29
2022-10-07T08:07:52.484Z,57.89
2022-10-07T08:09:55.814Z,57.81
2022-10-07T08:11:58.317Z,56.89
2022-10-07T08:14:03.343Z,56.68
2022-10-07T08:16:14.472Z,56.45
2022-10-07T08:18:18.918Z,55.65
2022-10-07T08:20:21.282Z,55.87
2022-10-07T08:22:23.824Z,54.51
2022-10-07T08:24:28.134Z,55.46
2022-10-07T08:26:33.136Z,53.96
2022-10-07T08:28:38.415Z,53.97
2022-10-07T08:30:40.507Z,53.22
2022-10-07T08:32:42.612Z,53.33
2022-10-07T08:34:44.609Z,54.09
2022-10-07T08:36:48.859Z,54.19
2022-10-07T08:38:51.434Z,54.46
2022-10-07T08:40:54.041Z,54.44
2022-10-07T08:42:56.150Z,53.82
2022-10-07T08:44:58.520Z,53.18
2022-10-07T08:47:27.306Z,51.82
2022-10-07T08:49:48.509Z,51.11
2022-10-07T08:52:05.921Z,52.35
2022-10-07T08:54:13.825Z,51.79
2022-10-07T08:56:18.740Z,52.22
2022-10-07T08:58:32.947Z,51.48
2022-10-07T09:00:59.004Z,50.71
2022-10-07T09:03:50.309Z,51.44
2022-10-07T09:05:54.917Z,51.91
2022-10-07T09:08:00.023Z,51.07
2022-10-07T09:10:11.040Z,51.00
2022-10-07T09:12:45.282Z,48.95
2022-10-07T09:14:50.606Z,51.29
2022-10-07T09:16:55.270Z,50.72
2022-10-07T09:19:02.598Z,48.79
2022-10-07T09:21:12.999Z,48.17
2022-10-07T09:23:16.044Z,49.52
2022-10-07T09:25:22.428Z,46.79
2022-10-07T09:27:26.865Z,48.04
2022-10-07T09:29:30.585Z,46.44
2022-10-07T09:31:32.945Z,47.77
2022-10-07T09:33:43.028Z,47.10
2022-10-07T09:36:04.260Z,44.54
2022-10-07T09:38:10.432Z,46.32
2022-10-07T09:40:31.187Z,45.16
2022-10-07T09:42:43.215Z,45.19
2022-10-07T09:44:52.619Z,45.73
2022-10-07T09:46:59.625Z,46.53
2022-10-07T09:49:05.598Z,44.66
2022-10-07T09:51:17.141Z,45.43
2022-10-07T09:53:22.875Z,45.35
2022-10-07T09:55:37.491Z,45.67
2022-10-07T09:57:40.688Z,46.30
2022-10-07T09:59:42.627Z,45.57
2022-10-07T10:01:55.318Z,46.22
2022-10-07T10:03:58.930Z,46.57
2022-10-07T10:06:04.151Z,46.68
2022-10-07T10:08:21.476Z,46.06
2022-10-07T10:10:31.290Z,45.65
2022-10-07T10:12:44.949Z,45.60
2022-10-07T10:14:53.756Z,45.75
2022-10-07T10:16:56.800Z,46.52
2022-10-07T10:19:04.085Z,47.18
2022-10-07T10:21:12.140Z,45.09
2022-10-07T10:23:36.123Z,44.94
2022-10-07T10:26:16.039Z,44.88
2022-10-07T10:28:35.261Z,45.95
2022-10-07T10:30:50.593Z,46.54
2022-10-07T10:33:14.831Z,45.27
2022-10-07T10:35:29.999Z,45.31
2022-10-07T10:37:40.905Z,45.57
2022-10-07T10:40:20.963Z,45.44
2022-10-07T10:42:31.607Z,45.61
2022-10-07T10:45:02.766Z,46.26
2022-10-07T10:47:26.467Z,45.57
2022-10-07T10:49:54.351Z,44.95
2022-10-07T10:52:12.445Z,44.90
2022-10-07T10:54:31.669Z,45.58
2022-10-07T10:56:54.189Z,45.86
2022-10-07T10:59:20.880Z,45.89
2022-10-07T11:01:24.052Z,46.11
2022-10-07T11:03:41.711Z,45.29
2022-10-07T11:05:45.063Z,45.73
2022-10-07T11:07:50.499Z,45.55
2022-10-07T11:09:57.848Z,44.74
2022-10-07T11:12:05.141Z,45.27
2022-10-07T11:14:22.992Z,45.62
2022-10-07T11:16:38.717Z,44.25
2022-10-07T11:19:05.150Z,45.22
2022-10-07T11:21:15.110Z,45.31
2022-10-07T11:23:22.832Z,45.02
2022-10-07T11:25:36.537Z,45.21
2022-10-07T11:27:40.418Z,44.95
2022-10-07T11:29:57.110Z,43.96
2022-10-07T11:32:05.502Z,43.99
2022-10-07T11:34:14.024Z,43.13
2022-10-07T11:36:24.963Z,44.12
2022-10-07T11:38:33.632Z,43.03
2022-10-07T11:40:44.086Z,42.79
2022-10-07T11:42:50.476Z,43.71
2022-10-07T11:45:13.130Z,42.66
2022-10-07T11:47:20.548Z,44.87
2022-10-07T11:49:56.073Z,43.18
2022-10-07T11:52:24.954Z,42.31
2022-10-07T11:54:30.432Z,43.01
2022-10-07T11:56:49.739Z,42.27
2022-10-07T11:59:02.853Z,42.86
2022-10-07T12:01:31.012Z,43.18
2022-10-07T12:03:33.708Z,43.52
2022-10-07T12:05:35.771Z,42.95
2022-10-07T12:07:45.019Z,42.59
2022-10-07T12:09:54.436Z,42.04
2022-10-07T12:11:57.021Z,42.43
2022-10-07T12:14:33.147Z,42.47
2022-10-07T12:16:43.061Z,42.62
2022-10-07T12:19:10.836Z,41.30
2022-10-07T12:21:13.772Z,42.87
2022-10-07T12:23:18.967Z,42.17
2022-10-07T12:25:29.463Z,41.73
2022-10-07T12:27:32.084Z,42.60
2022-10-07T12:29:48.608Z,42.84
2022-10-07T12:31:51.207Z,42.76
2022-10-07T12:34:10.559Z,42.56
2022-10-07T12:36:23.487Z,43.03
2022-10-07T12:38:28.579Z,43.00
2022-10-07T12:40:35.962Z,42.88
2022-10-07T12:42:45.790Z,42.82
2022-10-07T12:44:52.861Z,43.03
2022-10-07T12:47:18.438Z,41.37
2022-10-07T12:49:30.224Z,41.07
2022-10-07T12:51:39.856Z,41.72
2022-10-07T12:53:43.177Z,42.43
2022-10-07T12:55:50.223Z,41.76
2022-10-07T12:57:54.575Z,41.92
2022-10-07T13:00:02.629Z,41.59
2022-10-07T13:02:14.838Z,42.21
2022-10-07T13:04:30.793Z,41.35
2022-10-07T13:06:46.503Z,42.05
2022-10-07T13:09:33.282Z,40.95
2022-10-07T13:12:15.459Z,40.99
2022-10-07T13:14:44.470Z,40.53
2022-10-07T13:17:20.395Z,40.58
2022-10-07T13:19:39.189Z,41.05
2022-10-07T13:21:55.280Z,40.45
2022-10-07T13:23:57.322Z,40.61
2022-10-07T13:26:04.308Z,40.91
2022-10-07T13:28:07.361Z,40.65
2022-10-07T13:30:47.149Z,41.00
2022-10-07T13:32:49.232Z,40.91
2022-10-07T13:34:54.688Z,40.70
2022-10-07T13:36:57.220Z,40.79
2022-10-07T13:39:19.686Z,40.78
2022-10-07T13:41:27.978Z,41.14
2022-10-07T13:43:32.470Z,41.33
2022-10-07T13:45:45.297Z,40.81
2022-10-07T13:47:50.699Z,41.42
2022-10-07T13:49:54.292Z,40.91
2022-10-07T13:51:59.528Z,40.70
2022-10-07T13:54:04.807Z,40.92
2022-10-07T13:56:12.390Z,41.24
2022-10-07T13:58:15.544Z,41.26
2022-10-07T14:00:17.871Z,41.43
2022-10-07T14:02:20.859Z,40.86
2022-10-07T14:04:31.481Z,40.58
2022-10-07T14:06:48.636Z,41.06
2022-10-07T14:08:51.306Z,41.39
2022-10-07T14:10:58.900Z,41.43
2022-10-07T14:13:08.375Z,41.23
2022-10-07T14:15:17.151Z,41.49
2022-10-07T14:17:24.879Z,40.71
2022-10-07T14:19:33.126Z,40.91
2022-10-07T14:21:41.413Z,40.58
2022-10-07T14:23:46.996Z,40.76
2022-10-07T14:25:48.898Z,41.34
2022-10-07T14:27:53.125Z,41.36
2022-10-07T14:29:55.133Z,41.65
2022-10-07T14:32:39.102Z,41.31
2022-10-07T14:35:02.563Z,41.62
2022-10-07T14:37:09.912Z,41.91
2022-10-07T14:39:31.440Z,41.63
2022-10-07T14:41:33.445Z,41.91
2022-10-07T14:43:36.227Z,42.10
2022-10-07T14:45:38.336Z,42.79
2022-10-07T14:47:41.598Z,42.92
2022-10-07T14:49:43.743Z,43.10
2022-10-07T14:51:46.420Z,42.90
2022-10-07T14:53:51.441Z,42.93
2022-10-07T14:55:54.226Z,42.99
2022-10-07T14:57:56.439Z,43.45
2022-10-07T14:59:58.367Z,43.42
2022-10-07T15:02:01.219Z,43.53
2022-10-07T15:04:03.290Z,43.95
2022-10-07T15:06:06.671Z,43.74
2022-10-07T15:08:11.995Z,43.63
2022-10-07T15:10:21.863Z,44.88
2022-10-07T15:12:23.951Z,45.03
2022-10-07T15:14:26.085Z,44.92
2022-10-07T15:16:28.704Z,44.79
2022-10-07T15:18:31.294Z,45.24
2022-10-07T15:20:35.532Z,44.86
2022-10-07T15:22:38.292Z,45.14
2022-10-07T15:24:40.326Z,45.37
2022-10-07T15:26:42.619Z,45.19
2022-10-07T15:28:44.974Z,45.36
2022-10-07T15:30:46.959Z,45.50
2022-10-07T15:32:49.378Z,45.53
2022-10-07T15:34:55.298Z,45.28
2022-10-07T15:36:57.433Z,45.40
2022-10-07T15:39:02.794Z,45.92
2022-10-07T15:41:04.912Z,45.19
2022-10-07T15:43:06.924Z,45.52
2022-10-07T15:45:10.391Z,45.60
2022-10-07T15:47:13.593Z,45.42
2022-10-07T15:49:19.265Z,46.04
2022-10-07T15:51:21.550Z,46.04
2022-10-07T15:53:25.526Z,46.56
2022-10-07T15:55:27.693Z,46.49
2022-10-07T15:57:29.715Z,45.76
2022-10-07T15:59:32.029Z,46.00
2022-10-07T16:01:34.291Z,46.31
2022-10-07T16:03:41.504Z,46.31
2022-10-07T16:05:43.929Z,45.63
2022-10-07T16:07:45.801Z,47.02
2022-10-07T16:09:47.898Z,45.90
2022-10-07T16:11:51.089Z,46.07
2022-10-07T16:13:53.053Z,46.97
2022-10-07T16:15:57.195Z,46.34
2022-10-07T16:17:59.468Z,46.23
2022-10-07T16:20:05.570Z,46.50
2022-10-07T16:22:13.779Z,46.80
2022-10-07T16:24:23.241Z,47.61
2022-10-07T16:26:29.574Z,46.96
2022-10-07T16:28:51.265Z,46.96
2022-10-07T16:30:53.411Z,47.73
2022-10-07T16:32:55.375Z,48.12
2022-10-07T16:34:57.875Z,47.84
2022-10-07T16:36:59.920Z,48.34
2022-10-07T16:39:03.565Z,48.15
2022-10-07T16:41:05.627Z,48.64
2022-10-07T16:43:07.731Z,48.53
2022-10-07T16:45:10.239Z,47.98
2022-10-07T16:47:13.175Z,48.52
2022-10-07T16:49:17.778Z,49.05
2022-10-07T16:51:23.037Z,49.29
2022-10-07T16:53:27.252Z,48.96
2022-10-07T16:55:29.421Z,48.15
2022-10-07T16:57:31.910Z,48.12
2022-10-07T16:59:36.614Z,48.30
2022-10-07T17:01:39.501Z,48.18
2022-10-07T17:03:43.466Z,48.49
2022-10-07T17:05:45.664Z,48.53
2022-10-07T17:07:48.621Z,48.55
2022-10-07T17:09:50.870Z,48.40
2022-10-07T17:11:52.849Z,48.48
2022-10-07T17:14:17.997Z,49.20
2022-10-07T17:16:20.351Z,48.89
2022-10-07T17:18:24.733Z,49.10
2022-10-07T17:20:26.725Z,48.54
2022-10-07T17:22:28.941Z,48.67
2022-10-07T17:24:31.466Z,49.00
2022-10-07T17:26:33.837Z,49.11
2022-10-07T17:28:37.237Z,49.08
2022-10-07T17:30:39.612Z,48.76
2022-10-07T17:32:42.383Z,49.04
2022-10-07T17:34:45.541Z,48.63
2022-10-07T17:36:48.526Z,48.90
2022-10-07T17:38:50.603Z,48.84
2022-10-07T17:40:52.798Z,48.47
2022-10-07T17:42:55.745Z,49.04
2022-10-07T17:44:58.251Z,49.02
2022-10-07T17:47:03.728Z,48.89
2022-10-07T17:49:08.084Z,49.22
2022-10-07T17:51:10.424Z,49.56
2022-10-07T17:53:12.455Z,49.70
2022-10-07T17:55:14.193Z,49.76
2022-10-07T17:57:16.359Z,49.49
2022-10-07T17:59:18.220Z,49.60
2022-10-07T18:01:23.966Z,49.59
2022-10-07T18:03:26.752Z,49.44
2022-10-07T18:05:28.831Z,49.68
2022-10-07T18:07:30.665Z,49.48
2022-10-07T18:09:32.788Z,49.46
2022-10-07T18:11:53.343Z,49.42
2022-10-07T18:14:13.308Z,49.27
2022-10-07T18:16:15.900Z,50.13
2022-10-07T18:18:17.597Z,49.67
2022-10-07T18:20:21.673Z,49.73
2022-10-07T18:22:24.397Z,50.22
2022-10-07T18:24:28.892Z,49.76
2022-10-07T18:26:30.851Z,49.78
2022-10-07T18:28:34.440Z,49.88
2022-10-07T18:30:36.371Z,49.76
2022-10-07T18:32:38.128Z,49.75
2022-10-07T18:34:39.936Z,49.86
2022-10-07T18:36:41.670Z,49.85
2022-10-07T18:38:44.759Z,50.03
2022-10-07T18:40:46.520Z,50.10
2022-10-07T18:42:48.291Z,49.90
2022-10-07T18:44:50.705Z,49.71
2022-10-07T18:46:53.363Z,49.81
2022-10-07T18:48:55.049Z,50.10
2022-10-07T18:50:57.129Z,50.06
2022-10-07T18:53:00.692Z,49.82
2022-10-07T18:55:02.945Z,49.93
2022-10-07T18:57:04.773Z,50.61
2022-10-07T18:59:07.009Z,51.27
2022-10-07T19:01:13.136Z,51.09
2022-10-07T19:03:17.680Z,51.10
2022-10-07T19:05:19.956Z,50.88
2022-10-07T19:07:22.162Z,50.66
2022-10-07T19:09:27.259Z,51.51
2022-10-07T19:11:32.182Z,50.92
2022-10-07T19:13:53.769Z,50.99
2022-10-07T19:16:02.256Z,50.81
2022-10-07T19:18:04.731Z,50.87
2022-10-07T19:20:07.330Z,51.07
2022-10-07T19:22:09.862Z,50.96
2022-10-07T19:24:15.071Z,51.04
2022-10-07T19:26:21.692Z,51.17
2022-10-07T19:28:25.585Z,51.02
2022-10-07T19:30:27.951Z,50.93
2022-10-07T19:32:30.160Z,51.27
2022-10-07T19:34:34.292Z,51.94
2022-10-07T19:36:41.988Z,51.89
2022-10-07T19:38:46.377Z,51.91
2022-10-07T19:40:51.093Z,52.76
2022-10-07T19:42:53.606Z,52.74
2022-10-07T19:44:56.100Z,52.87
2022-10-07T19:46:58.548Z,52.83
2022-10-07T19:49:02.209Z,52.59
2022-10-07T19:51:08.663Z,52.59
2022-10-07T19:53:11.077Z,52.18
2022-10-07T19:55:13.697Z,52.32
2022-10-07T19:57:16.260Z,52.26
2022-10-07T19:59:18.687Z,52.09
2022-10-07T20:01:24.197Z,52.30
2022-10-07T20:03:26.853Z,52.81
2022-10-07T20:05:30.201Z,52.78
2022-10-07T20:07:32.475Z,53.31
2022-10-07T20:09:34.830Z,53.03
2022-10-07T20:11:37.507Z,53.14
2022-10-07T20:13:41.148Z,52.89
2022-10-07T20:15:43.920Z,52.72
2022-10-07T20:17:49.706Z,52.89
2022-10-07T20:19:53.944Z,52.54
2022-10-07T20:21:56.890Z,52.65
2022-10-07T20:23:59.374Z,52.73
2022-10-07T20:26:09.375Z,52.78
2022-10-07T20:28:11.616Z,52.49
2022-10-07T20:30:18.106Z,52.71
2022-10-07T20:32:24.310Z,52.54
2022-10-07T20:34:26.857Z,52.43
2022-10-07T20:36:31.555Z,52.91
2022-10-07T20:38:53.948Z,52.81
2022-10-07T20:41:14.656Z,52.67
2022-10-07T20:43:18.874Z,52.72
2022-10-07T20:45:21.181Z,52.43
2022-10-07T20:47:24.201Z,52.74
2022-10-07T20:49:29.041Z,52.97
2022-10-07T20:51:31.347Z,52.68
2022-10-07T20:53:33.996Z,52.70
2022-10-07T20:55:36.984Z,52.77
2022-10-07T20:57:39.681Z,52.62
2022-10-07T20:59:43.016Z,52.65
2022-10-07T21:01:45.699Z,52.92
2022-10-07T21:03:51.243Z,53.19
2022-10-07T21:05:58.575Z,52.93
2022-10-07T21:08:00.876Z,53.54
2022-10-07T21:10:02.993Z,53.71
2022-10-07T21:12:08.212Z,53.78
2022-10-07T21:14:11.681Z,53.83
2022-10-07T21:16:14.391Z,54.06
2022-10-07T21:18:19.260Z,53.74
2022-10-07T21:20:21.465Z,53.68
2022-10-07T21:22:23.952Z,53.56
2022-10-07T21:24:26.333Z,53.58
2022-10-07T21:26:28.633Z,53.29
2022-10-07T21:28:33.626Z,53.76
2022-10-07T21:30:36.131Z,53.46
2022-10-07T21:32:38.181Z,53.57
2022-10-07T21:34:40.889Z,53.29
2022-10-07T21:36:50.409Z,53.33
2022-10-07T21:38:56.556Z,53.39
2022-10-07T21:41:12.233Z,53.79
2022-10-07T21:43:15.118Z,53.65
2022-10-07T21:45:17.622Z,53.83
2022-10-07T21:47:19.791Z,53.91
2022-10-07T21:49:21.997Z,54.18
2022-10-07T21:51:27.150Z,54.06
2022-10-07T21:53:29.494Z,54.14
2022-10-07T21:55:31.927Z,54.72
2022-10-07T21:57:34.586Z,55.22
2022-10-07T21:59:36.931Z,54.92
2022-10-07T22:01:39.239Z,54.99
2022-10-07T22:03:42.474Z,55.18
2022-10-07T22:05:45.194Z,55.19
2022-10-07T22:08:05.746Z,55.16
2022-10-07T22:10:08.563Z,55.11
2022-10-07T22:12:10.846Z,54.97
2022-10-07T22:14:16.023Z,54.92
2022-10-07T22:16:19.507Z,54.74
2022-10-07T22:18:22.383Z,54.62
2022-10-07T22:20:27.841Z,55.02
2022-10-07T22:22:31.838Z,54.63
2022-10-07T22:24:37.379Z,54.34
2022-10-07T22:26:44.698Z,55.17
2022-10-07T22:28:46.953Z,55.49
2022-10-07T22:30:49.082Z,55.46
2022-10-07T22:32:53.537Z,55.77
2022-10-07T22:35:13.907Z,55.82
2022-10-07T22:37:16.008Z,55.43
2022-10-07T22:39:18.436Z,55.58
2022-10-07T22:41:20.628Z,55.50
2022-10-07T22:43:22.966Z,56.25
2022-10-07T22:45:25.253Z,57.40
2022-10-07T22:47:27.514Z,57.01
2022-10-07T22:49:30.454Z,56.96
2022-10-07T22:51:33.011Z,57.07
2022-10-07T22:53:38.347Z,56.80
2022-10-07T22:55:40.454Z,57.33
2022-10-07T22:57:42.676Z,57.40
2022-10-07T22:59:45.267Z,57.13
2022-10-07T23:01:50.315Z,57.16
2022-10-07T23:03:53.272Z,56.52
2022-10-07T23:05:55.745Z,56.55
2022-10-07T23:08:00.182Z,56.47
2022-10-07T23:10:02.454Z,56.24
2022-10-07T23:12:06.266Z,56.01
2022-10-07T23:14:08.689Z,56.23
2022-10-07T23:16:15.325Z,56.09
2022-10-07T23:18:17.371Z,55.99
2022-10-07T23:20:19.552Z,55.97
2022-10-07T23:22:22.119Z,56.02
2022-10-07T23:24:24.416Z,56.09
2022-10-07T23:26:29.307Z,56.24
2022-10-07T23:28:33.535Z,57.18
2022-10-07T23:30:38.764Z,58.18
2022-10-07T23:32:45.411Z,57.77
2022-10-07T23:34:47.732Z,57.91
2022-10-07T23:36:49.669Z,58.35
2022-10-07T23:39:53.816Z,58.89
2022-10-07T23:41:56.035Z,58.45
2022-10-07T23:44:02.153Z,58.66
2022-10-07T23:46:06.584Z,58.94
2022-10-07T23:48:09.826Z,59.34
2022-10-07T23:50:15.581Z,59.47
2022-10-07T23:52:17.632Z,59.16
2022-10-07T23:54:19.725Z,59.02
2022-10-07T23:56:21.952Z,59.21
2022-10-07T23:58:26.834Z,60.04
